< < Back
Terminal Aerodrome Forecast


Current Version              Previous Versions:   1  2  3  4  5  6  7  8  9  

Terminal Aerodrome Forecast

440
FTUS42 KFFC 281947 AAA
TAFATL
TAF AMD
KATL 281947Z 2820/2924 29005KT P6SM SKC
     FM290000 20003KT P6SM SKC
     FM291600 19006KT P6SM SCT250=



Latest METAR

277
SAUS70 KWBC 290100 RRF
MTRATL
METAR KATL 290052Z 19003KT 10SM CLR 04/M07 A3028 RMK AO2 SLP263
T00441072


USA.gov is the U.S. government's official web portal to all federal, state and local government web resources and services.